Chicago, IL (60625)

2:10 AM CDT on September 28, 2016 (GMT -0500)
Albany Park | | Change Station

Elev 600 ft 41.97 °N, 87.71 °W | Updated 2 seconds ago

Overcast
Overcast
55.0 °F
Feels Like 55.0 °F
N
0.9
Wind Variable Wind from NNE
Gusts 2.5 mph

Today
High -- | Low -- °F
--% Chance of Precip.
Yesterday
High -- | Low -- °F
Precip. -- in
Pressure 29.77 in
Visibility 10.0 miles
Clouds Few 6000 ft
Scattered Clouds 7500 ft
Overcast 9000 ft
Dew Point 45 °F
Humidity 68%
Rainfall 0.00 in
Snow Depth Not available.
6:45 AM 6:36 PM
Waning Crescent, 7% visible
METAR KORD 280651Z 05008KT 10SM FEW060 SCT075 OVC090 12/07 A2977 RMK AO2 SLP080 T01220072
Pressure 29.77 in
Visibility 10.0 miles
Clouds Few 6000 ft
Scattered Clouds 7500 ft
Overcast 9000 ft
Dew Point 45 °F
Humidity 68%
Rainfall 0.00 in
Snow Depth Not available.
6:45 AM 6:36 PM
Waning Crescent, 7% visible
METAR KORD 280651Z 05008KT 10SM FEW060 SCT075 OVC090 12/07 A2977 RMK AO2 SLP080 T01220072

10-Day Weather Forecast

Almanac

Astronomy

Sep. 28, 2016 Rise Set
Actual Time
Civil Twilight
Nautical Twilight
Astronomical Twilight
Moon
Length of Visible Light
Length of Day
Tomorrow will be .
, % of the Moon is Illuminated

Today's Extremes

State Highs State Lows

Community

WunderPhotos

Upload Photos

1,942,216 photos uploaded!

WunderBlog® & News

Nearby

Air Quality

  Air Quality AQ Index Pollutant
Not available.

Snow Depth

Station Depth Elevation

Earthquake Activity

City Distance Mag. Time & Date
Minimum magnitude displayed is 2.5.

Coastal Water Temperatures

Place Temperature

Stations

Nearby Weather Stations

Station Location Temp. Windchill Dew Point Humidity Wind Precip. Elev Updated Type
                   

Watches & Warnings

There are currently no watches in effect.